sensor_id;sensor_type;location;lat;lon;timestamp;P1;durP1;ratioP1;P2;durP2;ratioP2
15451;SDS011;7827;53.594;9.938;2023-05-14T00:01:45;15.60;;;12.82;;
15451;SDS011;7827;53.594;9.938;2023-05-14T00:04:13;14.05;;;11.80;;
15451;SDS011;7827;53.594;9.938;2023-05-14T00:06:41;14.82;;;12.38;;
15451;SDS011;7827;53.594;9.938;2023-05-14T00:09:09;14.13;;;12.23;;
15451;SDS011;7827;53.594;9.938;2023-05-14T00:11:38;18.95;;;12.52;;
15451;SDS011;7827;53.594;9.938;2023-05-14T00:14:08;14.90;;;11.85;;
15451;SDS011;7827;53.594;9.938;2023-05-14T00:16:36;13.98;;;12.45;;
15451;SDS011;7827;53.594;9.938;2023-05-14T00:19:04;14.57;;;12.50;;
15451;SDS011;7827;53.594;9.938;2023-05-14T00:21:33;14.30;;;12.80;;
15451;SDS011;7827;53.594;9.938;2023-05-14T00:24:01;16.38;;;13.73;;
15451;SDS011;7827;53.594;9.938;2023-05-14T00:26:29;14.65;;;12.77;;
15451;SDS011;7827;53.594;9.938;2023-05-14T00:28:58;16.08;;;12.32;;
15451;SDS011;7827;53.594;9.938;2023-05-14T00:31:27;19.63;;;13.63;;
15451;SDS011;7827;53.594;9.938;2023-05-14T00:33:56;14.90;;;13.20;;
15451;SDS011;7827;53.594;9.938;2023-05-14T00:36:24;19.10;;;14.55;;
15451;SDS011;7827;53.594;9.938;2023-05-14T00:38:52;17.15;;;14.93;;
15451;SDS011;7827;53.594;9.938;2023-05-14T00:41:21;16.45;;;13.52;;
15451;SDS011;7827;53.594;9.938;2023-05-14T00:43:49;16.40;;;13.70;;
15451;SDS011;7827;53.594;9.938;2023-05-14T00:46:18;18.40;;;13.80;;
15451;SDS011;7827;53.594;9.938;2023-05-14T00:48:48;16.42;;;14.07;;
15451;SDS011;7827;53.594;9.938;2023-05-14T00:51:16;16.60;;;13.93;;
15451;SDS011;7827;53.594;9.938;2023-05-14T00:53:45;16.88;;;14.57;;
15451;SDS011;7827;53.594;9.938;2023-05-14T00:56:14;19.90;;;15.07;;
15451;SDS011;7827;53.594;9.938;2023-05-14T00:58:43;16.95;;;14.07;;
15451;SDS011;7827;53.594;9.938;2023-05-14T01:01:11;16.52;;;14.40;;
15451;SDS011;7827;53.594;9.938;2023-05-14T01:03:40;17.73;;;14.50;;
15451;SDS011;7827;53.594;9.938;2023-05-14T01:06:17;18.10;;;14.82;;
15451;SDS011;7827;53.594;9.938;2023-05-14T01:08:58;15.70;;;14.02;;
15451;SDS011;7827;53.594;9.938;2023-05-14T01:11:35;16.38;;;14.68;;
15451;SDS011;7827;53.594;9.938;2023-05-14T01:14:16;18.35;;;14.52;;
15451;SDS011;7827;53.594;9.938;2023-05-14T01:16:51;17.10;;;14.93;;
15451;SDS011;7827;53.594;9.938;2023-05-14T01:19:26;17.80;;;14.48;;
15451;SDS011;7827;53.594;9.938;2023-05-14T01:22:07;17.67;;;13.75;;
15451;SDS011;7827;53.594;9.938;2023-05-14T01:24:37;15.55;;;13.88;;
15451;SDS011;7827;53.594;9.938;2023-05-14T01:27:06;16.13;;;13.65;;
15451;SDS011;7827;53.594;9.938;2023-05-14T01:29:46;17.60;;;13.07;;
15451;SDS011;7827;53.594;9.938;2023-05-14T01:32:22;17.50;;;13.55;;
15451;SDS011;7827;53.594;9.938;2023-05-14T01:34:53;13.23;;;11.75;;
15451;SDS011;7827;53.594;9.938;2023-05-14T01:37:26;12.70;;;11.30;;
15451;SDS011;7827;53.594;9.938;2023-05-14T01:39:57;11.68;;;10.45;;
15451;SDS011;7827;53.594;9.938;2023-05-14T01:42:27;12.10;;;10.10;;
15451;SDS011;7827;53.594;9.938;2023-05-14T01:44:56;12.40;;;10.50;;
15451;SDS011;7827;53.594;9.938;2023-05-14T01:47:24;12.63;;;10.13;;
15451;SDS011;7827;53.594;9.938;2023-05-14T01:49:52;12.63;;;9.13;;
15451;SDS011;7827;53.594;9.938;2023-05-14T01:52:21;11.63;;;9.38;;
15451;SDS011;7827;53.594;9.938;2023-05-14T01:54:50;13.32;;;10.63;;
15451;SDS011;7827;53.594;9.938;2023-05-14T01:57:19;10.85;;;9.82;;
15451;SDS011;7827;53.594;9.938;2023-05-14T01:59:47;12.23;;;10.88;;
15451;SDS011;7827;53.594;9.938;2023-05-14T02:02:15;13.52;;;10.32;;
15451;SDS011;7827;53.594;9.938;2023-05-14T02:04:44;12.48;;;10.43;;
15451;SDS011;7827;53.594;9.938;2023-05-14T02:07:12;11.85;;;10.32;;
15451;SDS011;7827;53.594;9.938;2023-05-14T02:09:40;11.48;;;10.00;;
15451;SDS011;7827;53.594;9.938;2023-05-14T02:12:10;13.57;;;9.98;;
15451;SDS011;7827;53.594;9.938;2023-05-14T02:14:38;10.48;;;9.43;;
15451;SDS011;7827;53.594;9.938;2023-05-14T02:17:07;16.42;;;9.80;;
15451;SDS011;7827;53.594;9.938;2023-05-14T02:19:35;11.00;;;9.63;;
15451;SDS011;7827;53.594;9.938;2023-05-14T02:22:03;11.52;;;9.30;;
15451;SDS011;7827;53.594;9.938;2023-05-14T02:24:32;12.93;;;10.10;;
15451;SDS011;7827;53.594;9.938;2023-05-14T02:27:01;10.38;;;9.25;;
15451;SDS011;7827;53.594;9.938;2023-05-14T02:29:30;13.73;;;10.05;;
15451;SDS011;7827;53.594;9.938;2023-05-14T02:31:59;12.18;;;10.40;;
15451;SDS011;7827;53.594;9.938;2023-05-14T02:34:27;12.32;;;9.60;;
15451;SDS011;7827;53.594;9.938;2023-05-14T02:36:55;10.60;;;9.30;;
15451;SDS011;7827;53.594;9.938;2023-05-14T02:39:24;12.93;;;9.60;;
15451;SDS011;7827;53.594;9.938;2023-05-14T02:41:52;10.75;;;9.65;;
15451;SDS011;7827;53.594;9.938;2023-05-14T02:44:20;11.10;;;10.00;;
15451;SDS011;7827;53.594;9.938;2023-05-14T02:46:50;15.35;;;10.45;;
15451;SDS011;7827;53.594;9.938;2023-05-14T02:49:18;14.55;;;10.48;;
15451;SDS011;7827;53.594;9.938;2023-05-14T02:51:46;11.15;;;9.93;;
15451;SDS011;7827;53.594;9.938;2023-05-14T02:54:15;14.38;;;9.77;;
15451;SDS011;7827;53.594;9.938;2023-05-14T02:56:43;13.32;;;10.05;;
15451;SDS011;7827;53.594;9.938;2023-05-14T02:59:11;15.88;;;9.85;;
15451;SDS011;7827;53.594;9.938;2023-05-14T03:01:40;10.05;;;8.95;;
15451;SDS011;7827;53.594;9.938;2023-05-14T03:04:10;12.50;;;9.35;;
15451;SDS011;7827;53.594;9.938;2023-05-14T03:06:38;13.88;;;9.63;;
15451;SDS011;7827;53.594;9.938;2023-05-14T03:09:07;11.65;;;9.80;;
15451;SDS011;7827;53.594;9.938;2023-05-14T03:11:35;11.25;;;10.07;;
15451;SDS011;7827;53.594;9.938;2023-05-14T03:14:04;10.15;;;9.10;;
15451;SDS011;7827;53.594;9.938;2023-05-14T03:16:32;13.23;;;9.90;;
15451;SDS011;7827;53.594;9.938;2023-05-14T03:19:00;12.43;;;9.27;;
15451;SDS011;7827;53.594;9.938;2023-05-14T03:21:30;10.80;;;9.60;;
15451;SDS011;7827;53.594;9.938;2023-05-14T03:23:59;10.23;;;9.02;;
15451;SDS011;7827;53.594;9.938;2023-05-14T03:26:28;10.68;;;8.98;;
15451;SDS011;7827;53.594;9.938;2023-05-14T03:28:56;12.50;;;9.27;;
15451;SDS011;7827;53.594;9.938;2023-05-14T03:31:24;14.65;;;9.90;;
15451;SDS011;7827;53.594;9.938;2023-05-14T03:33:55;10.77;;;9.63;;
15451;SDS011;7827;53.594;9.938;2023-05-14T03:36:23;11.00;;;9.60;;
15451;SDS011;7827;53.594;9.938;2023-05-14T03:38:53;10.63;;;9.02;;
15451;SDS011;7827;53.594;9.938;2023-05-14T03:41:21;12.15;;;9.80;;
15451;SDS011;7827;53.594;9.938;2023-05-14T03:43:49;10.70;;;9.68;;
15451;SDS011;7827;53.594;9.938;2023-05-14T03:46:18;14.60;;;10.05;;
15451;SDS011;7827;53.594;9.938;2023-05-14T03:48:46;11.73;;;10.18;;
15451;SDS011;7827;53.594;9.938;2023-05-14T03:51:14;10.45;;;9.45;;
15451;SDS011;7827;53.594;9.938;2023-05-14T03:53:43;12.85;;;9.43;;
15451;SDS011;7827;53.594;9.938;2023-05-14T03:56:13;10.93;;;9.75;;
15451;SDS011;7827;53.594;9.938;2023-05-14T03:58:42;11.43;;;10.20;;
15451;SDS011;7827;53.594;9.938;2023-05-14T04:01:10;10.00;;;8.95;;
15451;SDS011;7827;53.594;9.938;2023-05-14T04:03:38;10.57;;;9.35;;
15451;SDS011;7827;53.594;9.938;2023-05-14T04:06:07;13.65;;;9.77;;
15451;SDS011;7827;53.594;9.938;2023-05-14T04:08:35;10.45;;;9.05;;
15451;SDS011;7827;53.594;9.938;2023-05-14T04:11:04;12.80;;;9.70;;
15451;SDS011;7827;53.594;9.938;2023-05-14T04:13:35;13.10;;;9.13;;
15451;SDS011;7827;53.594;9.938;2023-05-14T04:16:03;11.77;;;8.95;;
15451;SDS011;7827;53.594;9.938;2023-05-14T04:18:33;11.27;;;8.57;;
15451;SDS011;7827;53.594;9.938;2023-05-14T04:21:01;11.00;;;8.65;;
15451;SDS011;7827;53.594;9.938;2023-05-14T04:23:30;11.20;;;8.85;;
15451;SDS011;7827;53.594;9.938;2023-05-14T04:25:58;10.15;;;8.60;;
15451;SDS011;7827;53.594;9.938;2023-05-14T04:28:27;9.10;;;7.18;;
15451;SDS011;7827;53.594;9.938;2023-05-14T04:30:57;11.48;;;7.70;;
15451;SDS011;7827;53.594;9.938;2023-05-14T04:33:25;12.32;;;7.43;;
15451;SDS011;7827;53.594;9.938;2023-05-14T04:35:54;11.07;;;7.68;;
15451;SDS011;7827;53.594;9.938;2023-05-14T04:38:22;9.15;;;7.38;;
15451;SDS011;7827;53.594;9.938;2023-05-14T04:40:50;9.23;;;7.53;;
15451;SDS011;7827;53.594;9.938;2023-05-14T04:43:18;8.68;;;7.35;;
15451;SDS011;7827;53.594;9.938;2023-05-14T04:45:46;8.40;;;7.45;;
15451;SDS011;7827;53.594;9.938;2023-05-14T04:48:15;9.68;;;7.30;;
15451;SDS011;7827;53.594;9.938;2023-05-14T04:50:44;11.63;;;7.13;;
15451;SDS011;7827;53.594;9.938;2023-05-14T04:53:14;7.35;;;6.65;;
15451;SDS011;7827;53.594;9.938;2023-05-14T04:55:43;8.98;;;6.68;;
15451;SDS011;7827;53.594;9.938;2023-05-14T04:58:11;9.27;;;7.13;;
15451;SDS011;7827;53.594;9.938;2023-05-14T05:00:39;8.40;;;7.05;;
15451;SDS011;7827;53.594;9.938;2023-05-14T05:03:07;9.45;;;7.80;;
15451;SDS011;7827;53.594;9.938;2023-05-14T05:05:37;11.85;;;7.97;;
15451;SDS011;7827;53.594;9.938;2023-05-14T05:08:05;8.10;;;7.25;;
15451;SDS011;7827;53.594;9.938;2023-05-14T05:10:33;9.95;;;7.20;;
15451;SDS011;7827;53.594;9.938;2023-05-14T05:13:01;17.35;;;7.68;;
15451;SDS011;7827;53.594;9.938;2023-05-14T05:15:29;7.55;;;6.70;;
15451;SDS011;7827;53.594;9.938;2023-05-14T05:17:57;8.65;;;7.75;;
15451;SDS011;7827;53.594;9.938;2023-05-14T05:20:26;9.25;;;7.18;;
15451;SDS011;7827;53.594;9.938;2023-05-14T05:22:55;8.05;;;7.15;;
15451;SDS011;7827;53.594;9.938;2023-05-14T05:25:26;12.40;;;7.30;;
15451;SDS011;7827;53.594;9.938;2023-05-14T05:27:54;13.35;;;7.70;;
15451;SDS011;7827;53.594;9.938;2023-05-14T05:30:23;9.13;;;7.15;;
15451;SDS011;7827;53.594;9.938;2023-05-14T05:32:51;8.88;;;7.57;;
15451;SDS011;7827;53.594;9.938;2023-05-14T05:35:21;9.38;;;6.82;;
15451;SDS011;7827;53.594;9.938;2023-05-14T05:37:49;11.27;;;7.90;;
15451;SDS011;7827;53.594;9.938;2023-05-14T05:40:19;9.55;;;7.32;;
15451;SDS011;7827;53.594;9.938;2023-05-14T05:42:47;8.35;;;7.45;;
15451;SDS011;7827;53.594;9.938;2023-05-14T05:45:16;8.60;;;6.80;;
15451;SDS011;7827;53.594;9.938;2023-05-14T05:47:45;9.88;;;6.82;;
15451;SDS011;7827;53.594;9.938;2023-05-14T05:50:13;16.75;;;7.50;;
15451;SDS011;7827;53.594;9.938;2023-05-14T05:52:46;8.13;;;6.82;;
15451;SDS011;7827;53.594;9.938;2023-05-14T05:55:14;9.48;;;6.85;;
15451;SDS011;7827;53.594;9.938;2023-05-14T05:57:44;8.07;;;7.10;;
15451;SDS011;7827;53.594;9.938;2023-05-14T06:00:12;7.53;;;6.75;;
15451;SDS011;7827;53.594;9.938;2023-05-14T06:02:42;7.72;;;6.93;;
15451;SDS011;7827;53.594;9.938;2023-05-14T06:05:11;6.85;;;6.25;;
15451;SDS011;7827;53.594;9.938;2023-05-14T06:07:39;8.40;;;6.78;;
15451;SDS011;7827;53.594;9.938;2023-05-14T06:10:07;10.23;;;6.43;;
15451;SDS011;7827;53.594;9.938;2023-05-14T06:12:36;7.45;;;6.75;;
15451;SDS011;7827;53.594;9.938;2023-05-14T06:15:07;8.75;;;6.78;;
15451;SDS011;7827;53.594;9.938;2023-05-14T06:17:37;7.40;;;6.38;;
15451;SDS011;7827;53.594;9.938;2023-05-14T06:20:06;7.57;;;6.88;;
15451;SDS011;7827;53.594;9.938;2023-05-14T06:22:35;7.97;;;6.53;;
15451;SDS011;7827;53.594;9.938;2023-05-14T06:25:04;8.73;;;6.75;;
15451;SDS011;7827;53.594;9.938;2023-05-14T06:27:34;9.02;;;6.68;;
15451;SDS011;7827;53.594;9.938;2023-05-14T06:30:02;9.13;;;6.95;;
15451;SDS011;7827;53.594;9.938;2023-05-14T06:32:33;8.82;;;6.90;;
15451;SDS011;7827;53.594;9.938;2023-05-14T06:35:02;9.10;;;6.68;;
15451;SDS011;7827;53.594;9.938;2023-05-14T06:37:31;7.38;;;6.65;;
15451;SDS011;7827;53.594;9.938;2023-05-14T06:40:00;7.35;;;6.60;;
15451;SDS011;7827;53.594;9.938;2023-05-14T06:42:29;8.15;;;6.50;;
15451;SDS011;7827;53.594;9.938;2023-05-14T06:44:57;7.00;;;6.30;;
15451;SDS011;7827;53.594;9.938;2023-05-14T06:47:26;6.68;;;6.07;;
15451;SDS011;7827;53.594;9.938;2023-05-14T06:49:55;7.68;;;6.55;;
15451;SDS011;7827;53.594;9.938;2023-05-14T06:52:24;6.80;;;6.10;;
15451;SDS011;7827;53.594;9.938;2023-05-14T06:54:53;8.60;;;6.78;;
15451;SDS011;7827;53.594;9.938;2023-05-14T06:57:21;7.75;;;6.30;;
15451;SDS011;7827;53.594;9.938;2023-05-14T06:59:49;6.55;;;5.80;;
15451;SDS011;7827;53.594;9.938;2023-05-14T07:02:17;6.07;;;5.47;;
15451;SDS011;7827;53.594;9.938;2023-05-14T07:04:46;6.22;;;5.57;;
15451;SDS011;7827;53.594;9.938;2023-05-14T07:07:15;6.72;;;5.63;;
15451;SDS011;7827;53.594;9.938;2023-05-14T07:09:46;6.82;;;5.15;;
15451;SDS011;7827;53.594;9.938;2023-05-14T07:12:14;6.15;;;5.35;;
15451;SDS011;7827;53.594;9.938;2023-05-14T07:14:42;6.13;;;5.32;;
15451;SDS011;7827;53.594;9.938;2023-05-14T07:17:11;10.13;;;5.13;;
15451;SDS011;7827;53.594;9.938;2023-05-14T07:19:40;5.53;;;5.03;;
15451;SDS011;7827;53.594;9.938;2023-05-14T07:22:08;5.15;;;4.75;;
15451;SDS011;7827;53.594;9.938;2023-05-14T07:24:38;5.47;;;4.95;;
15451;SDS011;7827;53.594;9.938;2023-05-14T07:27:06;7.82;;;4.75;;
15451;SDS011;7827;53.594;9.938;2023-05-14T07:29:34;5.47;;;4.97;;
15451;SDS011;7827;53.594;9.938;2023-05-14T07:32:03;5.35;;;4.85;;
15451;SDS011;7827;53.594;9.938;2023-05-14T07:34:31;5.63;;;4.78;;
15451;SDS011;7827;53.594;9.938;2023-05-14T07:36:59;5.47;;;4.90;;
15451;SDS011;7827;53.594;9.938;2023-05-14T07:39:29;5.82;;;4.60;;
15451;SDS011;7827;53.594;9.938;2023-05-14T07:41:58;8.55;;;5.05;;
15451;SDS011;7827;53.594;9.938;2023-05-14T07:44:27;7.88;;;5.20;;
15451;SDS011;7827;53.594;9.938;2023-05-14T07:46:55;7.43;;;5.78;;
15451;SDS011;7827;53.594;9.938;2023-05-14T07:49:24;5.30;;;4.80;;
15451;SDS011;7827;53.594;9.938;2023-05-14T07:51:52;7.80;;;5.43;;
15451;SDS011;7827;53.594;9.938;2023-05-14T07:54:20;6.80;;;5.35;;
15451;SDS011;7827;53.594;9.938;2023-05-14T07:56:48;5.68;;;5.15;;
15451;SDS011;7827;53.594;9.938;2023-05-14T07:59:18;6.80;;;4.88;;
15451;SDS011;7827;53.594;9.938;2023-05-14T08:01:46;8.38;;;5.47;;
15451;SDS011;7827;53.594;9.938;2023-05-14T08:04:15;6.43;;;5.65;;
15451;SDS011;7827;53.594;9.938;2023-05-14T08:06:43;9.65;;;4.80;;
15451;SDS011;7827;53.594;9.938;2023-05-14T08:09:11;7.10;;;5.72;;
15451;SDS011;7827;53.594;9.938;2023-05-14T08:11:40;6.22;;;5.30;;
15451;SDS011;7827;53.594;9.938;2023-05-14T08:14:08;5.85;;;4.70;;
15451;SDS011;7827;53.594;9.938;2023-05-14T08:16:37;6.78;;;5.10;;
15451;SDS011;7827;53.594;9.938;2023-05-14T08:19:06;5.88;;;5.05;;
15451;SDS011;7827;53.594;9.938;2023-05-14T08:21:34;8.30;;;5.05;;
15451;SDS011;7827;53.594;9.938;2023-05-14T08:24:03;6.38;;;5.28;;
15451;SDS011;7827;53.594;9.938;2023-05-14T08:26:32;6.50;;;4.80;;
15451;SDS011;7827;53.594;9.938;2023-05-14T08:29:00;6.63;;;4.88;;
15451;SDS011;7827;53.594;9.938;2023-05-14T08:31:28;8.38;;;4.95;;
15451;SDS011;7827;53.594;9.938;2023-05-14T08:33:58;6.40;;;4.93;;
15451;SDS011;7827;53.594;9.938;2023-05-14T08:36:26;6.70;;;5.10;;
15451;SDS011;7827;53.594;9.938;2023-05-14T08:38:54;6.80;;;5.28;;
15451;SDS011;7827;53.594;9.938;2023-05-14T08:41:23;7.72;;;4.80;;
15451;SDS011;7827;53.594;9.938;2023-05-14T08:43:55;6.72;;;4.80;;
15451;SDS011;7827;53.594;9.938;2023-05-14T08:46:33;5.82;;;4.72;;
15451;SDS011;7827;53.594;9.938;2023-05-14T08:49:09;7.18;;;4.80;;
15451;SDS011;7827;53.594;9.938;2023-05-14T08:51:47;5.25;;;4.65;;
15451;SDS011;7827;53.594;9.938;2023-05-14T08:54:16;5.65;;;4.97;;
15451;SDS011;7827;53.594;9.938;2023-05-14T08:56:44;7.57;;;4.63;;
15451;SDS011;7827;53.594;9.938;2023-05-14T08:59:15;8.10;;;4.65;;
15451;SDS011;7827;53.594;9.938;2023-05-14T09:01:45;5.40;;;4.40;;
15451;SDS011;7827;53.594;9.938;2023-05-14T09:04:18;7.40;;;4.80;;
15451;SDS011;7827;53.594;9.938;2023-05-14T09:06:49;6.05;;;4.47;;
15451;SDS011;7827;53.594;9.938;2023-05-14T09:09:19;9.85;;;4.80;;
15451;SDS011;7827;53.594;9.938;2023-05-14T09:11:49;7.25;;;4.30;;
15451;SDS011;7827;53.594;9.938;2023-05-14T09:14:19;7.03;;;4.40;;
15451;SDS011;7827;53.594;9.938;2023-05-14T09:16:49;8.00;;;4.15;;
15451;SDS011;7827;53.594;9.938;2023-05-14T09:19:19;5.63;;;4.13;;
15451;SDS011;7827;53.594;9.938;2023-05-14T09:21:48;10.10;;;7.03;;
15451;SDS011;7827;53.594;9.938;2023-05-14T09:24:20;9.10;;;7.20;;
15451;SDS011;7827;53.594;9.938;2023-05-14T09:26:50;10.55;;;5.28;;
15451;SDS011;7827;53.594;9.938;2023-05-14T09:29:22;5.13;;;3.97;;
15451;SDS011;7827;53.594;9.938;2023-05-14T09:31:52;6.68;;;4.25;;
15451;SDS011;7827;53.594;9.938;2023-05-14T09:34:23;5.32;;;4.05;;
15451;SDS011;7827;53.594;9.938;2023-05-14T09:36:56;5.93;;;4.07;;
15451;SDS011;7827;53.594;9.938;2023-05-14T09:39:26;5.10;;;4.22;;
15451;SDS011;7827;53.594;9.938;2023-05-14T09:41:56;7.88;;;4.25;;
15451;SDS011;7827;53.594;9.938;2023-05-14T09:44:24;5.70;;;4.07;;
15451;SDS011;7827;53.594;9.938;2023-05-14T09:46:54;5.40;;;3.95;;
15451;SDS011;7827;53.594;9.938;2023-05-14T09:49:24;7.63;;;4.25;;
15451;SDS011;7827;53.594;9.938;2023-05-14T09:51:52;6.60;;;3.75;;
15451;SDS011;7827;53.594;9.938;2023-05-14T09:54:22;7.30;;;3.97;;
15451;SDS011;7827;53.594;9.938;2023-05-14T09:56:53;7.40;;;3.90;;
15451;SDS011;7827;53.594;9.938;2023-05-14T09:59:21;4.47;;;4.07;;
15451;SDS011;7827;53.594;9.938;2023-05-14T10:01:49;5.93;;;4.28;;
15451;SDS011;7827;53.594;9.938;2023-05-14T10:04:18;5.95;;;3.97;;
15451;SDS011;7827;53.594;9.938;2023-05-14T10:06:50;4.65;;;4.25;;
15451;SDS011;7827;53.594;9.938;2023-05-14T10:09:23;8.32;;;4.10;;
15451;SDS011;7827;53.594;9.938;2023-05-14T10:11:56;4.60;;;3.90;;
15451;SDS011;7827;53.594;9.938;2023-05-14T10:14:28;6.45;;;3.88;;
15451;SDS011;7827;53.594;9.938;2023-05-14T10:17:06;6.35;;;4.07;;
15451;SDS011;7827;53.594;9.938;2023-05-14T10:19:44;4.60;;;3.65;;
15451;SDS011;7827;53.594;9.938;2023-05-14T10:22:21;4.10;;;3.58;;
15451;SDS011;7827;53.594;9.938;2023-05-14T10:24:51;7.35;;;3.92;;
15451;SDS011;7827;53.594;9.938;2023-05-14T10:27:20;3.88;;;3.58;;
15451;SDS011;7827;53.594;9.938;2023-05-14T10:29:50;4.82;;;3.67;;
15451;SDS011;7827;53.594;9.938;2023-05-14T10:32:21;5.63;;;3.80;;
15451;SDS011;7827;53.594;9.938;2023-05-14T10:34:51;7.68;;;4.05;;
15451;SDS011;7827;53.594;9.938;2023-05-14T10:37:21;6.78;;;3.80;;
15451;SDS011;7827;53.594;9.938;2023-05-14T10:39:52;7.50;;;4.45;;
15451;SDS011;7827;53.594;9.938;2023-05-14T10:42:25;4.40;;;4.00;;
15451;SDS011;7827;53.594;9.938;2023-05-14T10:44:59;5.00;;;3.88;;
15451;SDS011;7827;53.594;9.938;2023-05-14T10:47:32;6.55;;;4.60;;
15451;SDS011;7827;53.594;9.938;2023-05-14T10:50:04;5.47;;;4.13;;
15451;SDS011;7827;53.594;9.938;2023-05-14T10:52:36;4.10;;;3.80;;
15451;SDS011;7827;53.594;9.938;2023-05-14T10:55:07;8.90;;;4.05;;
15451;SDS011;7827;53.594;9.938;2023-05-14T10:57:41;6.13;;;4.00;;
15451;SDS011;7827;53.594;9.938;2023-05-14T11:00:11;7.88;;;3.80;;
15451;SDS011;7827;53.594;9.938;2023-05-14T11:02:41;6.32;;;3.47;;
15451;SDS011;7827;53.594;9.938;2023-05-14T11:05:11;6.20;;;4.53;;
15451;SDS011;7827;53.594;9.938;2023-05-14T11:07:45;4.35;;;3.80;;
15451;SDS011;7827;53.594;9.938;2023-05-14T11:10:16;4.70;;;4.00;;
15451;SDS011;7827;53.594;9.938;2023-05-14T11:12:46;7.32;;;4.03;;
15451;SDS011;7827;53.594;9.938;2023-05-14T11:15:20;7.35;;;4.50;;
15451;SDS011;7827;53.594;9.938;2023-05-14T11:17:53;6.30;;;4.50;;
15451;SDS011;7827;53.594;9.938;2023-05-14T11:20:22;6.25;;;4.18;;
15451;SDS011;7827;53.594;9.938;2023-05-14T11:22:52;5.82;;;3.80;;
15451;SDS011;7827;53.594;9.938;2023-05-14T11:25:20;5.25;;;4.72;;
15451;SDS011;7827;53.594;9.938;2023-05-14T11:27:51;4.13;;;3.72;;
15451;SDS011;7827;53.594;9.938;2023-05-14T11:30:23;4.97;;;3.80;;
15451;SDS011;7827;53.594;9.938;2023-05-14T11:32:51;4.65;;;4.15;;
15451;SDS011;7827;53.594;9.938;2023-05-14T11:35:20;6.18;;;4.30;;
15451;SDS011;7827;53.594;9.938;2023-05-14T11:37:49;4.30;;;3.90;;
15451;SDS011;7827;53.594;9.938;2023-05-14T11:40:19;9.00;;;3.90;;
15451;SDS011;7827;53.594;9.938;2023-05-14T11:42:49;5.03;;;3.72;;
15451;SDS011;7827;53.594;9.938;2023-05-14T11:45:23;5.78;;;4.07;;
15451;SDS011;7827;53.594;9.938;2023-05-14T11:47:52;6.47;;;4.20;;
15451;SDS011;7827;53.594;9.938;2023-05-14T11:50:21;9.75;;;4.78;;
15451;SDS011;7827;53.594;9.938;2023-05-14T11:52:54;7.72;;;4.35;;
15451;SDS011;7827;53.594;9.938;2023-05-14T11:55:23;7.05;;;4.10;;
15451;SDS011;7827;53.594;9.938;2023-05-14T11:57:51;6.53;;;4.13;;
15451;SDS011;7827;53.594;9.938;2023-05-14T12:00:20;4.35;;;3.95;;
15451;SDS011;7827;53.594;9.938;2023-05-14T12:02:50;5.82;;;4.15;;
15451;SDS011;7827;53.594;9.938;2023-05-14T12:05:19;9.98;;;4.07;;
15451;SDS011;7827;53.594;9.938;2023-05-14T12:07:47;11.32;;;4.55;;
15451;SDS011;7827;53.594;9.938;2023-05-14T12:10:17;7.22;;;4.55;;
15451;SDS011;7827;53.594;9.938;2023-05-14T12:12:45;11.48;;;4.28;;
15451;SDS011;7827;53.594;9.938;2023-05-14T12:15:15;5.93;;;4.30;;
15451;SDS011;7827;53.594;9.938;2023-05-14T12:17:48;7.80;;;3.95;;
15451;SDS011;7827;53.594;9.938;2023-05-14T12:20:17;8.23;;;5.95;;
15451;SDS011;7827;53.594;9.938;2023-05-14T12:22:46;12.52;;;7.70;;
15451;SDS011;7827;53.594;9.938;2023-05-14T12:25:14;9.38;;;6.55;;
15451;SDS011;7827;53.594;9.938;2023-05-14T12:27:44;9.15;;;5.35;;
15451;SDS011;7827;53.594;9.938;2023-05-14T12:30:12;8.68;;;4.60;;
15451;SDS011;7827;53.594;9.938;2023-05-14T12:32:43;5.90;;;4.43;;
15451;SDS011;7827;53.594;9.938;2023-05-14T12:35:12;7.35;;;4.80;;
15451;SDS011;7827;53.594;9.938;2023-05-14T12:37:40;9.05;;;4.97;;
15451;SDS011;7827;53.594;9.938;2023-05-14T12:40:09;10.40;;;4.40;;
15451;SDS011;7827;53.594;9.938;2023-05-14T12:42:39;8.27;;;4.63;;
15451;SDS011;7827;53.594;9.938;2023-05-14T12:45:07;5.72;;;4.00;;
15451;SDS011;7827;53.594;9.938;2023-05-14T12:47:36;5.05;;;3.92;;
15451;SDS011;7827;53.594;9.938;2023-05-14T12:50:05;4.70;;;4.10;;
15451;SDS011;7827;53.594;9.938;2023-05-14T12:52:35;5.95;;;4.50;;
15451;SDS011;7827;53.594;9.938;2023-05-14T12:55:05;5.13;;;4.40;;
15451;SDS011;7827;53.594;9.938;2023-05-14T12:57:35;10.07;;;5.18;;
15451;SDS011;7827;53.594;9.938;2023-05-14T13:00:07;6.80;;;4.55;;
15451;SDS011;7827;53.594;9.938;2023-05-14T13:02:42;7.50;;;4.13;;
15451;SDS011;7827;53.594;9.938;2023-05-14T13:05:11;6.53;;;4.45;;
15451;SDS011;7827;53.594;9.938;2023-05-14T13:07:39;7.25;;;4.22;;
15451;SDS011;7827;53.594;9.938;2023-05-14T13:10:15;6.45;;;4.43;;
15451;SDS011;7827;53.594;9.938;2023-05-14T13:12:43;6.55;;;4.45;;
15451;SDS011;7827;53.594;9.938;2023-05-14T13:15:13;4.70;;;4.20;;
15451;SDS011;7827;53.594;9.938;2023-05-14T13:17:41;9.13;;;4.70;;
15451;SDS011;7827;53.594;9.938;2023-05-14T13:20:10;8.77;;;4.63;;
15451;SDS011;7827;53.594;9.938;2023-05-14T13:22:38;7.18;;;4.45;;
15451;SDS011;7827;53.594;9.938;2023-05-14T13:25:07;6.20;;;4.40;;
15451;SDS011;7827;53.594;9.938;2023-05-14T13:27:36;4.57;;;4.13;;
15451;SDS011;7827;53.594;9.938;2023-05-14T13:30:04;5.75;;;4.30;;
15451;SDS011;7827;53.594;9.938;2023-05-14T13:32:35;8.32;;;4.45;;
15451;SDS011;7827;53.594;9.938;2023-05-14T13:35:07;4.57;;;4.18;;
15451;SDS011;7827;53.594;9.938;2023-05-14T13:37:35;9.98;;;4.07;;
15451;SDS011;7827;53.594;9.938;2023-05-14T13:40:04;4.95;;;4.43;;
15451;SDS011;7827;53.594;9.938;2023-05-14T13:42:34;5.28;;;4.10;;
15451;SDS011;7827;53.594;9.938;2023-05-14T13:45:05;7.85;;;4.32;;
15451;SDS011;7827;53.594;9.938;2023-05-14T13:47:36;6.80;;;4.30;;
15451;SDS011;7827;53.594;9.938;2023-05-14T13:50:06;7.25;;;4.45;;
15451;SDS011;7827;53.594;9.938;2023-05-14T13:52:35;7.07;;;5.15;;
15451;SDS011;7827;53.594;9.938;2023-05-14T13:55:04;6.28;;;4.38;;
15451;SDS011;7827;53.594;9.938;2023-05-14T13:57:34;7.72;;;4.28;;
15451;SDS011;7827;53.594;9.938;2023-05-14T14:00:03;4.95;;;4.03;;
15451;SDS011;7827;53.594;9.938;2023-05-14T14:02:32;6.25;;;4.30;;
15451;SDS011;7827;53.594;9.938;2023-05-14T14:05:02;5.65;;;4.47;;
15451;SDS011;7827;53.594;9.938;2023-05-14T14:07:31;6.35;;;4.28;;
15451;SDS011;7827;53.594;9.938;2023-05-14T14:09:59;9.63;;;4.05;;
15451;SDS011;7827;53.594;9.938;2023-05-14T14:12:28;7.10;;;4.15;;
15451;SDS011;7827;53.594;9.938;2023-05-14T14:14:56;4.68;;;3.92;;
15451;SDS011;7827;53.594;9.938;2023-05-14T14:17:24;7.38;;;3.55;;
15451;SDS011;7827;53.594;9.938;2023-05-14T14:19:53;6.93;;;3.75;;
15451;SDS011;7827;53.594;9.938;2023-05-14T14:22:22;5.53;;;4.20;;
15451;SDS011;7827;53.594;9.938;2023-05-14T14:24:54;5.38;;;4.20;;
15451;SDS011;7827;53.594;9.938;2023-05-14T14:27:22;5.80;;;4.30;;
15451;SDS011;7827;53.594;9.938;2023-05-14T14:29:51;7.28;;;4.25;;
15451;SDS011;7827;53.594;9.938;2023-05-14T14:32:19;6.07;;;4.10;;
15451;SDS011;7827;53.594;9.938;2023-05-14T14:34:47;7.95;;;4.43;;
15451;SDS011;7827;53.594;9.938;2023-05-14T14:37:16;5.30;;;4.15;;
15451;SDS011;7827;53.594;9.938;2023-05-14T14:39:47;7.65;;;4.18;;
15451;SDS011;7827;53.594;9.938;2023-05-14T14:42:15;5.90;;;4.35;;
15451;SDS011;7827;53.594;9.938;2023-05-14T14:44:44;8.30;;;4.43;;
15451;SDS011;7827;53.594;9.938;2023-05-14T14:47:12;6.03;;;4.13;;
15451;SDS011;7827;53.594;9.938;2023-05-14T14:49:40;5.75;;;4.20;;
15451;SDS011;7827;53.594;9.938;2023-05-14T14:52:08;6.82;;;4.60;;
15451;SDS011;7827;53.594;9.938;2023-05-14T14:54:36;7.05;;;4.57;;
15451;SDS011;7827;53.594;9.938;2023-05-14T14:57:06;6.93;;;4.30;;
15451;SDS011;7827;53.594;9.938;2023-05-14T14:59:34;10.25;;;4.43;;
15451;SDS011;7827;53.594;9.938;2023-05-14T15:02:02;6.25;;;4.00;;
15451;SDS011;7827;53.594;9.938;2023-05-14T15:04:31;5.60;;;4.38;;
15451;SDS011;7827;53.594;9.938;2023-05-14T15:07:00;7.20;;;4.40;;
15451;SDS011;7827;53.594;9.938;2023-05-14T15:09:28;7.78;;;4.78;;